sensor_id;sensor_type;location;lat;lon;timestamp;temperature;humidity
54485;DHT22;45006;56.958;24.166;2023-03-21T00:01:51;22.50;70.90
54485;DHT22;45006;56.958;24.166;2023-03-21T00:04:20;22.50;70.90
54485;DHT22;45006;56.958;24.166;2023-03-21T00:06:47;22.50;71.00
54485;DHT22;45006;56.958;24.166;2023-03-21T00:09:14;22.50;71.10
54485;DHT22;45006;56.958;24.166;2023-03-21T00:11:42;22.50;71.10
54485;DHT22;45006;56.958;24.166;2023-03-21T00:14:09;22.50;71.10
54485;DHT22;45006;56.958;24.166;2023-03-21T00:16:40;22.50;71.00
54485;DHT22;45006;56.958;24.166;2023-03-21T00:19:08;22.50;71.00
54485;DHT22;45006;56.958;24.166;2023-03-21T00:21:36;22.50;71.10
54485;DHT22;45006;56.958;24.166;2023-03-21T00:24:21;22.50;71.70
54485;DHT22;45006;56.958;24.166;2023-03-21T00:26:49;22.50;71.00
54485;DHT22;45006;56.958;24.166;2023-03-21T00:29:18;22.50;71.10
54485;DHT22;45006;56.958;24.166;2023-03-21T00:31:45;22.50;71.10
54485;DHT22;45006;56.958;24.166;2023-03-21T00:34:11;22.50;71.10
54485;DHT22;45006;56.958;24.166;2023-03-21T00:36:43;22.50;71.10
54485;DHT22;45006;56.958;24.166;2023-03-21T00:39:10;22.50;71.10
54485;DHT22;45006;56.958;24.166;2023-03-21T00:41:37;22.50;71.20
54485;DHT22;45006;56.958;24.166;2023-03-21T00:44:10;22.50;71.40
54485;DHT22;45006;56.958;24.166;2023-03-21T00:46:39;22.50;71.40
54485;DHT22;45006;56.958;24.166;2023-03-21T00:49:26;22.50;71.40
54485;DHT22;45006;56.958;24.166;2023-03-21T00:51:53;22.50;71.60
54485;DHT22;45006;56.958;24.166;2023-03-21T00:54:22;22.50;71.60
54485;DHT22;45006;56.958;24.166;2023-03-21T00:56:49;22.50;71.70
54485;DHT22;45006;56.958;24.166;2023-03-21T00:59:16;22.50;71.60
54485;DHT22;45006;56.958;24.166;2023-03-21T01:01:44;22.50;71.80
54485;DHT22;45006;56.958;24.166;2023-03-21T01:04:13;22.50;71.90
54485;DHT22;45006;56.958;24.166;2023-03-21T01:06:43;22.50;71.80
54485;DHT22;45006;56.958;24.166;2023-03-21T01:09:19;22.50;71.80
54485;DHT22;45006;56.958;24.166;2023-03-21T01:11:48;22.50;71.80
54485;DHT22;45006;56.958;24.166;2023-03-21T01:14:16;22.50;71.80
54485;DHT22;45006;56.958;24.166;2023-03-21T01:16:52;22.50;71.80
54485;DHT22;45006;56.958;24.166;2023-03-21T01:19:21;22.50;71.90
54485;DHT22;45006;56.958;24.166;2023-03-21T01:21:57;22.50;71.90
54485;DHT22;45006;56.958;24.166;2023-03-21T01:24:24;22.50;72.60
54485;DHT22;45006;56.958;24.166;2023-03-21T01:26:51;22.50;71.80
54485;DHT22;45006;56.958;24.166;2023-03-21T01:29:18;22.50;71.90
54485;DHT22;45006;56.958;24.166;2023-03-21T01:31:45;22.50;71.90
54485;DHT22;45006;56.958;24.166;2023-03-21T01:34:12;22.50;72.00
54485;DHT22;45006;56.958;24.166;2023-03-21T01:36:39;22.50;72.00
54485;DHT22;45006;56.958;24.166;2023-03-21T01:39:06;22.60;72.00
54485;DHT22;45006;56.958;24.166;2023-03-21T01:41:37;22.50;72.00
54485;DHT22;45006;56.958;24.166;2023-03-21T01:44:16;22.50;71.90
54485;DHT22;45006;56.958;24.166;2023-03-21T01:49:37;22.50;72.00
54485;DHT22;45006;56.958;24.166;2023-03-21T01:52:09;22.50;72.00
54485;DHT22;45006;56.958;24.166;2023-03-21T01:54:53;22.50;72.10
54485;DHT22;45006;56.958;24.166;2023-03-21T01:57:35;22.50;72.00
54485;DHT22;45006;56.958;24.166;2023-03-21T02:00:13;22.50;72.00
54485;DHT22;45006;56.958;24.166;2023-03-21T02:02:43;22.50;72.70
54485;DHT22;45006;56.958;24.166;2023-03-21T02:05:23;22.50;72.10
54485;DHT22;45006;56.958;24.166;2023-03-21T02:07:53;22.50;72.10
54485;DHT22;45006;56.958;24.166;2023-03-21T02:10:20;22.50;72.10
54485;DHT22;45006;56.958;24.166;2023-03-21T02:12:47;22.50;72.10
54485;DHT22;45006;56.958;24.166;2023-03-21T02:15:14;22.50;72.10
54485;DHT22;45006;56.958;24.166;2023-03-21T02:18:02;22.50;72.10
54485;DHT22;45006;56.958;24.166;2023-03-21T02:32:16;22.50;72.10
54485;DHT22;45006;56.958;24.166;2023-03-21T02:35:21;22.50;72.10
54485;DHT22;45006;56.958;24.166;2023-03-21T02:38:18;22.50;72.10
54485;DHT22;45006;56.958;24.166;2023-03-21T02:41:20;22.50;72.00
54485;DHT22;45006;56.958;24.166;2023-03-21T02:46:56;22.50;72.00
54485;DHT22;45006;56.958;24.166;2023-03-21T02:49:49;22.50;72.00
54485;DHT22;45006;56.958;24.166;2023-03-21T02:52:21;22.50;72.20
54485;DHT22;45006;56.958;24.166;2023-03-21T02:55:04;22.50;72.10
54485;DHT22;45006;56.958;24.166;2023-03-21T02:57:32;22.50;72.10
54485;DHT22;45006;56.958;24.166;2023-03-21T03:00:12;22.50;72.10
54485;DHT22;45006;56.958;24.166;2023-03-21T03:02:44;22.50;72.10
54485;DHT22;45006;56.958;24.166;2023-03-21T03:05:17;22.50;72.10
54485;DHT22;45006;56.958;24.166;2023-03-21T03:11:21;22.50;72.10
54485;DHT22;45006;56.958;24.166;2023-03-21T03:20:18;22.50;72.20
54485;DHT22;45006;56.958;24.166;2023-03-21T03:26:14;22.50;72.20
54485;DHT22;45006;56.958;24.166;2023-03-21T03:28:49;22.50;72.20
54485;DHT22;45006;56.958;24.166;2023-03-21T03:31:24;22.50;72.30
54485;DHT22;45006;56.958;24.166;2023-03-21T03:33:53;22.50;72.30
54485;DHT22;45006;56.958;24.166;2023-03-21T03:36:26;22.50;72.30
54485;DHT22;45006;56.958;24.166;2023-03-21T03:39:00;22.50;72.30
54485;DHT22;45006;56.958;24.166;2023-03-21T03:41:30;22.50;72.30
54485;DHT22;45006;56.958;24.166;2023-03-21T03:44:20;22.50;72.30
54485;DHT22;45006;56.958;24.166;2023-03-21T03:46:53;22.50;72.30
54485;DHT22;45006;56.958;24.166;2023-03-21T03:49:25;22.50;72.30
54485;DHT22;45006;56.958;24.166;2023-03-21T03:51:54;22.50;72.30
54485;DHT22;45006;56.958;24.166;2023-03-21T03:54:45;22.50;72.30
54485;DHT22;45006;56.958;24.166;2023-03-21T03:57:13;22.50;72.30
54485;DHT22;45006;56.958;24.166;2023-03-21T03:59:43;22.50;72.30
54485;DHT22;45006;56.958;24.166;2023-03-21T04:02:13;22.50;72.40
54485;DHT22;45006;56.958;24.166;2023-03-21T04:04:40;22.50;72.30
54485;DHT22;45006;56.958;24.166;2023-03-21T04:07:07;22.50;72.30
54485;DHT22;45006;56.958;24.166;2023-03-21T04:09:34;22.50;72.30
54485;DHT22;45006;56.958;24.166;2023-03-21T04:12:11;22.50;72.40
54485;DHT22;45006;56.958;24.166;2023-03-21T04:14:38;22.50;72.40
54485;DHT22;45006;56.958;24.166;2023-03-21T04:17:12;22.50;72.30
54485;DHT22;45006;56.958;24.166;2023-03-21T04:19:39;22.50;72.30
54485;DHT22;45006;56.958;24.166;2023-03-21T04:22:06;22.50;72.30
54485;DHT22;45006;56.958;24.166;2023-03-21T04:24:33;22.50;72.40
54485;DHT22;45006;56.958;24.166;2023-03-21T04:27:03;22.50;72.30
54485;DHT22;45006;56.958;24.166;2023-03-21T04:29:31;22.50;72.30
54485;DHT22;45006;56.958;24.166;2023-03-21T04:31:59;22.50;72.30
54485;DHT22;45006;56.958;24.166;2023-03-21T04:34:27;22.50;72.30
54485;DHT22;45006;56.958;24.166;2023-03-21T04:36:54;22.50;72.30
54485;DHT22;45006;56.958;24.166;2023-03-21T04:39:22;22.50;72.30
54485;DHT22;45006;56.958;24.166;2023-03-21T04:41:50;22.50;72.20
54485;DHT22;45006;56.958;24.166;2023-03-21T04:44:17;22.50;72.20
54485;DHT22;45006;56.958;24.166;2023-03-21T04:46:44;22.50;72.20
54485;DHT22;45006;56.958;24.166;2023-03-21T04:49:11;22.50;72.30
54485;DHT22;45006;56.958;24.166;2023-03-21T04:51:41;22.50;72.40
54485;DHT22;45006;56.958;24.166;2023-03-21T04:54:09;22.50;72.40
54485;DHT22;45006;56.958;24.166;2023-03-21T04:56:39;22.50;72.40
54485;DHT22;45006;56.958;24.166;2023-03-21T04:59:09;22.50;72.30
54485;DHT22;45006;56.958;24.166;2023-03-21T05:01:36;22.50;72.40
54485;DHT22;45006;56.958;24.166;2023-03-21T05:04:04;22.50;72.40
54485;DHT22;45006;56.958;24.166;2023-03-21T05:06:31;22.50;72.50
54485;DHT22;45006;56.958;24.166;2023-03-21T05:08:59;22.50;72.50
54485;DHT22;45006;56.958;24.166;2023-03-21T05:11:28;22.50;72.60
54485;DHT22;45006;56.958;24.166;2023-03-21T05:13:59;22.50;72.50
54485;DHT22;45006;56.958;24.166;2023-03-21T05:16:25;22.50;72.50
54485;DHT22;45006;56.958;24.166;2023-03-21T05:18:57;22.50;72.50
54485;DHT22;45006;56.958;24.166;2023-03-21T05:21:25;22.50;72.50
54485;DHT22;45006;56.958;24.166;2023-03-21T05:23:55;22.50;72.50
54485;DHT22;45006;56.958;24.166;2023-03-21T05:26:24;22.50;72.60
54485;DHT22;45006;56.958;24.166;2023-03-21T05:28:51;22.50;72.70
54485;DHT22;45006;56.958;24.166;2023-03-21T05:31:18;22.50;72.70
54485;DHT22;45006;56.958;24.166;2023-03-21T05:33:46;22.50;72.90
54485;DHT22;45006;56.958;24.166;2023-03-21T05:36:14;22.50;72.90
54485;DHT22;45006;56.958;24.166;2023-03-21T05:38:41;22.50;72.90
54485;DHT22;45006;56.958;24.166;2023-03-21T05:41:12;22.50;73.10
54485;DHT22;45006;56.958;24.166;2023-03-21T05:43:39;22.50;73.10
54485;DHT22;45006;56.958;24.166;2023-03-21T05:46:07;22.50;73.20
54485;DHT22;45006;56.958;24.166;2023-03-21T05:48:34;22.50;73.30
54485;DHT22;45006;56.958;24.166;2023-03-21T05:51:02;22.50;73.20
54485;DHT22;45006;56.958;24.166;2023-03-21T05:53:30;22.50;73.30
54485;DHT22;45006;56.958;24.166;2023-03-21T05:55:57;22.50;73.30
54485;DHT22;45006;56.958;24.166;2023-03-21T05:58:24;22.50;73.30
54485;DHT22;45006;56.958;24.166;2023-03-21T06:00:51;22.50;73.40
54485;DHT22;45006;56.958;24.166;2023-03-21T06:03:18;22.50;73.30
54485;DHT22;45006;56.958;24.166;2023-03-21T06:05:45;22.50;73.40
54485;DHT22;45006;56.958;24.166;2023-03-21T06:08:12;22.50;73.40
54485;DHT22;45006;56.958;24.166;2023-03-21T06:10:39;22.50;73.40
54485;DHT22;45006;56.958;24.166;2023-03-21T06:13:06;22.50;73.40
54485;DHT22;45006;56.958;24.166;2023-03-21T06:15:33;22.50;73.50
54485;DHT22;45006;56.958;24.166;2023-03-21T06:18:00;22.50;73.50
54485;DHT22;45006;56.958;24.166;2023-03-21T06:20:26;22.50;73.50
54485;DHT22;45006;56.958;24.166;2023-03-21T06:22:53;22.50;73.60
54485;DHT22;45006;56.958;24.166;2023-03-21T06:25:20;22.50;73.60
54485;DHT22;45006;56.958;24.166;2023-03-21T06:27:48;22.50;73.80
54485;DHT22;45006;56.958;24.166;2023-03-21T06:30:15;22.50;73.90
54485;DHT22;45006;56.958;24.166;2023-03-21T06:32:43;22.50;73.90
54485;DHT22;45006;56.958;24.166;2023-03-21T06:35:10;22.50;73.90
54485;DHT22;45006;56.958;24.166;2023-03-21T06:37:37;22.50;73.90
54485;DHT22;45006;56.958;24.166;2023-03-21T06:40:04;22.50;73.90
54485;DHT22;45006;56.958;24.166;2023-03-21T06:42:37;22.60;74.00
54485;DHT22;45006;56.958;24.166;2023-03-21T06:45:04;22.50;74.00
54485;DHT22;45006;56.958;24.166;2023-03-21T06:47:32;22.60;74.20
54485;DHT22;45006;56.958;24.166;2023-03-21T06:49:59;22.60;74.20
54485;DHT22;45006;56.958;24.166;2023-03-21T06:52:25;22.60;74.30
54485;DHT22;45006;56.958;24.166;2023-03-21T06:54:52;22.60;74.20
54485;DHT22;45006;56.958;24.166;2023-03-21T06:57:19;22.60;74.30
54485;DHT22;45006;56.958;24.166;2023-03-21T06:59:47;22.60;74.30
54485;DHT22;45006;56.958;24.166;2023-03-21T07:02:14;22.60;74.40
54485;DHT22;45006;56.958;24.166;2023-03-21T07:04:41;22.60;74.50
54485;DHT22;45006;56.958;24.166;2023-03-21T07:07:08;22.60;74.50
54485;DHT22;45006;56.958;24.166;2023-03-21T07:09:35;22.60;74.60
54485;DHT22;45006;56.958;24.166;2023-03-21T07:12:02;22.60;74.60
54485;DHT22;45006;56.958;24.166;2023-03-21T07:14:29;22.60;74.60
54485;DHT22;45006;56.958;24.166;2023-03-21T07:16:57;22.60;74.70
54485;DHT22;45006;56.958;24.166;2023-03-21T07:19:24;22.60;74.70
54485;DHT22;45006;56.958;24.166;2023-03-21T07:21:56;22.60;74.70
54485;DHT22;45006;56.958;24.166;2023-03-21T07:24:23;22.60;74.80
54485;DHT22;45006;56.958;24.166;2023-03-21T07:26:50;22.60;75.00
54485;DHT22;45006;56.958;24.166;2023-03-21T07:29:17;22.60;75.00
54485;DHT22;45006;56.958;24.166;2023-03-21T07:31:47;22.60;75.10
54485;DHT22;45006;56.958;24.166;2023-03-21T07:34:14;22.60;75.20
54485;DHT22;45006;56.958;24.166;2023-03-21T07:36:42;22.60;75.20
54485;DHT22;45006;56.958;24.166;2023-03-21T07:39:09;22.60;75.20
54485;DHT22;45006;56.958;24.166;2023-03-21T07:41:36;22.60;75.30
54485;DHT22;45006;56.958;24.166;2023-03-21T07:44:03;22.60;76.00
54485;DHT22;45006;56.958;24.166;2023-03-21T07:46:33;22.60;75.40
54485;DHT22;45006;56.958;24.166;2023-03-21T07:49:00;22.60;75.00
54485;DHT22;45006;56.958;24.166;2023-03-21T07:51:27;22.60;74.80
54485;DHT22;45006;56.958;24.166;2023-03-21T07:53:54;22.60;74.70
54485;DHT22;45006;56.958;24.166;2023-03-21T07:56:20;22.60;74.50
54485;DHT22;45006;56.958;24.166;2023-03-21T07:58:47;22.60;74.30
54485;DHT22;45006;56.958;24.166;2023-03-21T08:01:14;22.60;74.10
54485;DHT22;45006;56.958;24.166;2023-03-21T08:03:41;22.60;74.00
54485;DHT22;45006;56.958;24.166;2023-03-21T08:06:09;22.60;73.90
54485;DHT22;45006;56.958;24.166;2023-03-21T08:08:36;22.60;73.80
54485;DHT22;45006;56.958;24.166;2023-03-21T08:11:04;22.60;73.50
54485;DHT22;45006;56.958;24.166;2023-03-21T08:13:31;22.60;73.40
54485;DHT22;45006;56.958;24.166;2023-03-21T08:15:58;22.60;73.30
54485;DHT22;45006;56.958;24.166;2023-03-21T08:18:25;22.60;73.10
54485;DHT22;45006;56.958;24.166;2023-03-21T08:20:53;22.50;72.80
54485;DHT22;45006;56.958;24.166;2023-03-21T08:23:22;22.50;72.80
54485;DHT22;45006;56.958;24.166;2023-03-21T08:25:51;22.50;73.00
54485;DHT22;45006;56.958;24.166;2023-03-21T08:28:19;22.50;73.20
54485;DHT22;45006;56.958;24.166;2023-03-21T08:30:47;22.50;73.10
54485;DHT22;45006;56.958;24.166;2023-03-21T08:33:15;22.50;72.30
54485;DHT22;45006;56.958;24.166;2023-03-21T08:35:44;22.50;71.10
54485;DHT22;45006;56.958;24.166;2023-03-21T08:38:12;22.50;70.60
54485;DHT22;45006;56.958;24.166;2023-03-21T08:40:39;22.50;70.20
54485;DHT22;45006;56.958;24.166;2023-03-21T08:43:07;22.50;69.00
54485;DHT22;45006;56.958;24.166;2023-03-21T08:45:34;22.50;68.90
54485;DHT22;45006;56.958;24.166;2023-03-21T08:48:01;22.50;67.80
54485;DHT22;45006;56.958;24.166;2023-03-21T08:50:28;22.50;68.50
54485;DHT22;45006;56.958;24.166;2023-03-21T08:52:57;22.50;68.70
54485;DHT22;45006;56.958;24.166;2023-03-21T08:55:24;22.50;68.70
54485;DHT22;45006;56.958;24.166;2023-03-21T08:57:51;22.50;68.60
54485;DHT22;45006;56.958;24.166;2023-03-21T09:00:19;22.50;68.50
54485;DHT22;45006;56.958;24.166;2023-03-21T09:02:48;22.50;68.40
54485;DHT22;45006;56.958;24.166;2023-03-21T09:05:18;22.50;68.40
54485;DHT22;45006;56.958;24.166;2023-03-21T09:07:45;22.50;68.40
54485;DHT22;45006;56.958;24.166;2023-03-21T09:10:15;22.50;68.50
54485;DHT22;45006;56.958;24.166;2023-03-21T09:12:49;22.50;68.50
54485;DHT22;45006;56.958;24.166;2023-03-21T09:15:16;22.50;68.50
54485;DHT22;45006;56.958;24.166;2023-03-21T09:17:45;22.50;68.50
54485;DHT22;45006;56.958;24.166;2023-03-21T09:20:14;22.50;68.50
54485;DHT22;45006;56.958;24.166;2023-03-21T09:22:52;22.50;68.60
54485;DHT22;45006;56.958;24.166;2023-03-21T09:25:19;22.50;68.60
54485;DHT22;45006;56.958;24.166;2023-03-21T09:27:47;22.50;68.70
54485;DHT22;45006;56.958;24.166;2023-03-21T09:30:17;22.50;68.60
54485;DHT22;45006;56.958;24.166;2023-03-21T09:32:45;22.50;68.60
54485;DHT22;45006;56.958;24.166;2023-03-21T09:35:17;22.50;68.60
54485;DHT22;45006;56.958;24.166;2023-03-21T09:37:46;22.50;68.50
54485;DHT22;45006;56.958;24.166;2023-03-21T09:40:20;22.50;68.60
54485;DHT22;45006;56.958;24.166;2023-03-21T09:45:53;22.50;68.50
54485;DHT22;45006;56.958;24.166;2023-03-21T09:51:26;22.40;67.40
54485;DHT22;45006;56.958;24.166;2023-03-21T09:53:55;22.40;68.00
54485;DHT22;45006;56.958;24.166;2023-03-21T09:56:23;22.40;68.00
54485;DHT22;45006;56.958;24.166;2023-03-21T09:58:55;22.40;68.00
54485;DHT22;45006;56.958;24.166;2023-03-21T10:01:27;22.50;68.10
54485;DHT22;45006;56.958;24.166;2023-03-21T10:03:56;22.40;68.00
54485;DHT22;45006;56.958;24.166;2023-03-21T10:06:27;22.50;68.00
54485;DHT22;45006;56.958;24.166;2023-03-21T10:09:03;22.50;68.10
54485;DHT22;45006;56.958;24.166;2023-03-21T10:11:44;22.50;68.10
54485;DHT22;45006;56.958;24.166;2023-03-21T10:14:24;22.50;68.00
54485;DHT22;45006;56.958;24.166;2023-03-21T10:17:01;22.50;68.10
54485;DHT22;45006;56.958;24.166;2023-03-21T10:19:30;22.50;68.00
54485;DHT22;45006;56.958;24.166;2023-03-21T10:21:58;22.40;67.90
54485;DHT22;45006;56.958;24.166;2023-03-21T10:24:31;22.40;67.90
54485;DHT22;45006;56.958;24.166;2023-03-21T10:27:00;22.40;67.90
54485;DHT22;45006;56.958;24.166;2023-03-21T10:29:38;22.40;67.90
54485;DHT22;45006;56.958;24.166;2023-03-21T10:32:15;22.40;67.80
54485;DHT22;45006;56.958;24.166;2023-03-21T10:34:55;22.40;67.90
54485;DHT22;45006;56.958;24.166;2023-03-21T10:37:27;22.40;68.10
54485;DHT22;45006;56.958;24.166;2023-03-21T10:39:54;22.40;68.30
54485;DHT22;45006;56.958;24.166;2023-03-21T10:42:31;22.40;68.50
54485;DHT22;45006;56.958;24.166;2023-03-21T10:44:59;22.40;68.50
54485;DHT22;45006;56.958;24.166;2023-03-21T10:47:31;22.40;68.60
54485;DHT22;45006;56.958;24.166;2023-03-21T10:50:14;22.40;68.60
54485;DHT22;45006;56.958;24.166;2023-03-21T10:52:55;22.40;68.60
54485;DHT22;45006;56.958;24.166;2023-03-21T10:55:32;22.40;68.20
54485;DHT22;45006;56.958;24.166;2023-03-21T10:58:20;22.40;67.60
54485;DHT22;45006;56.958;24.166;2023-03-21T11:00:56;22.40;67.20
54485;DHT22;45006;56.958;24.166;2023-03-21T11:03:54;22.40;67.40
54485;DHT22;45006;56.958;24.166;2023-03-21T11:06:30;22.40;67.20
54485;DHT22;45006;56.958;24.166;2023-03-21T11:09:08;22.40;67.30
54485;DHT22;45006;56.958;24.166;2023-03-21T11:12:08;22.40;67.40
54485;DHT22;45006;56.958;24.166;2023-03-21T11:14:39;22.40;67.60
54485;DHT22;45006;56.958;24.166;2023-03-21T11:19:51;22.40;68.00
54485;DHT22;45006;56.958;24.166;2023-03-21T11:22:20;22.40;68.10
54485;DHT22;45006;56.958;24.166;2023-03-21T11:24:53;22.40;68.30
54485;DHT22;45006;56.958;24.166;2023-03-21T11:27:25;22.40;68.40
54485;DHT22;45006;56.958;24.166;2023-03-21T11:29:56;22.40;68.50
54485;DHT22;45006;56.958;24.166;2023-03-21T11:32:24;22.40;68.70
54485;DHT22;45006;56.958;24.166;2023-03-21T11:37:42;22.40;68.90
54485;DHT22;45006;56.958;24.166;2023-03-21T11:42:56;22.40;68.90
54485;DHT22;45006;56.958;24.166;2023-03-21T11:47:53;22.40;68.90
54485;DHT22;45006;56.958;24.166;2023-03-21T12:01:18;22.40;69.50
54485;DHT22;45006;56.958;24.166;2023-03-21T12:06:59;22.40;68.10
54485;DHT22;45006;56.958;24.166;2023-03-21T12:09:39;22.40;67.50
54485;DHT22;45006;56.958;24.166;2023-03-21T12:20:15;22.40;66.00
54485;DHT22;45006;56.958;24.166;2023-03-21T12:23:02;22.50;65.90
54485;DHT22;45006;56.958;24.166;2023-03-21T12:25:47;22.50;65.70
54485;DHT22;45006;56.958;24.166;2023-03-21T12:28:50;22.50;65.50
54485;DHT22;45006;56.958;24.166;2023-03-21T12:32:27;22.50;65.60
54485;DHT22;45006;56.958;24.166;2023-03-21T12:45:46;22.50;66.50
54485;DHT22;45006;56.958;24.166;2023-03-21T12:50:50;22.50;66.90
54485;DHT22;45006;56.958;24.166;2023-03-21T12:55:47;22.50;67.40
54485;DHT22;45006;56.958;24.166;2023-03-21T12:58:19;22.50;67.60
54485;DHT22;45006;56.958;24.166;2023-03-21T13:00:57;22.60;67.80
54485;DHT22;45006;56.958;24.166;2023-03-21T13:03:36;22.50;67.80
54485;DHT22;45006;56.958;24.166;2023-03-21T13:06:08;22.50;68.00
54485;DHT22;45006;56.958;24.166;2023-03-21T13:08:40;22.60;68.10
54485;DHT22;45006;56.958;24.166;2023-03-21T13:11:13;22.60;68.20
54485;DHT22;45006;56.958;24.166;2023-03-21T13:16:57;22.50;68.30
54485;DHT22;45006;56.958;24.166;2023-03-21T13:19:35;22.60;68.40
54485;DHT22;45006;56.958;24.166;2023-03-21T13:24:51;22.60;68.40
54485;DHT22;45006;56.958;24.166;2023-03-21T13:27:30;22.60;68.50
54485;DHT22;45006;56.958;24.166;2023-03-21T13:30:20;22.50;68.40
54485;DHT22;45006;56.958;24.166;2023-03-21T13:32:50;22.50;68.60
54485;DHT22;45006;56.958;24.166;2023-03-21T13:35:31;22.50;68.90
54485;DHT22;45006;56.958;24.166;2023-03-21T13:38:18;22.50;68.80
54485;DHT22;45006;56.958;24.166;2023-03-21T13:41:01;22.50;68.70
54485;DHT22;45006;56.958;24.166;2023-03-21T13:51:38;22.50;68.40
54485;DHT22;45006;56.958;24.166;2023-03-21T14:04:35;22.50;68.20
54485;DHT22;45006;56.958;24.166;2023-03-21T14:07:23;22.50;68.20
54485;DHT22;45006;56.958;24.166;2023-03-21T14:09:55;22.50;68.20
54485;DHT22;45006;56.958;24.166;2023-03-21T14:12:34;22.50;68.10
54485;DHT22;45006;56.958;24.166;2023-03-21T14:18:26;22.50;68.10
54485;DHT22;45006;56.958;24.166;2023-03-21T14:21:23;22.50;68.10
54485;DHT22;45006;56.958;24.166;2023-03-21T14:24:05;22.50;68.10
54485;DHT22;45006;56.958;24.166;2023-03-21T14:26:53;22.40;68.10
54485;DHT22;45006;56.958;24.166;2023-03-21T14:29:33;22.40;68.10
54485;DHT22;45006;56.958;24.166;2023-03-21T14:32:01;22.40;68.20
54485;DHT22;45006;56.958;24.166;2023-03-21T14:34:31;22.40;68.20
54485;DHT22;45006;56.958;24.166;2023-03-21T14:36:58;22.40;67.30
54485;DHT22;45006;56.958;24.166;2023-03-21T14:39:31;22.40;66.80
54485;DHT22;45006;56.958;24.166;2023-03-21T14:42:07;22.40;65.90
54485;DHT22;45006;56.958;24.166;2023-03-21T14:44:39;22.40;66.50
54485;DHT22;45006;56.958;24.166;2023-03-21T14:47:28;22.40;66.50
54485;DHT22;45006;56.958;24.166;2023-03-21T14:49:58;22.40;66.60
54485;DHT22;45006;56.958;24.166;2023-03-21T14:52:30;22.40;66.60
54485;DHT22;45006;56.958;24.166;2023-03-21T14:54:59;22.40;66.70
54485;DHT22;45006;56.958;24.166;2023-03-21T14:57:30;22.40;66.80
54485;DHT22;45006;56.958;24.166;2023-03-21T15:00:04;22.40;66.90
54485;DHT22;45006;56.958;24.166;2023-03-21T15:02:40;22.40;67.00
54485;DHT22;45006;56.958;24.166;2023-03-21T15:05:10;22.40;67.20
54485;DHT22;45006;56.958;24.166;2023-03-21T15:07:40;22.40;67.30
54485;DHT22;45006;56.958;24.166;2023-03-21T15:10:16;22.30;67.30
54485;DHT22;45006;56.958;24.166;2023-03-21T15:12:55;22.40;67.40
54485;DHT22;45006;56.958;24.166;2023-03-21T15:15:24;22.30;67.40
54485;DHT22;45006;56.958;24.166;2023-03-21T15:17:55;22.30;67.50
54485;DHT22;45006;56.958;24.166;2023-03-21T15:20:25;22.30;67.60
54485;DHT22;45006;56.958;24.166;2023-03-21T15:22:58;22.30;67.60
54485;DHT22;45006;56.958;24.166;2023-03-21T15:25:29;22.30;67.70
54485;DHT22;45006;56.958;24.166;2023-03-21T15:28:01;22.30;67.70
54485;DHT22;45006;56.958;24.166;2023-03-21T15:30:31;22.30;67.80
54485;DHT22;45006;56.958;24.166;2023-03-21T15:33:11;22.30;67.80
54485;DHT22;45006;56.958;24.166;2023-03-21T15:35:49;22.30;67.80
54485;DHT22;45006;56.958;24.166;2023-03-21T15:44:00;22.30;67.40
54485;DHT22;45006;56.958;24.166;2023-03-21T15:46:51;22.30;67.20
54485;DHT22;45006;56.958;24.166;2023-03-21T15:51:59;22.30;67.20
54485;DHT22;45006;56.958;24.166;2023-03-21T15:54:28;22.30;67.20
54485;DHT22;45006;56.958;24.166;2023-03-21T15:57:03;22.30;67.30
54485;DHT22;45006;56.958;24.166;2023-03-21T15:59:39;22.30;67.40
54485;DHT22;45006;56.958;24.166;2023-03-21T16:02:18;22.30;67.50
54485;DHT22;45006;56.958;24.166;2023-03-21T16:05:04;22.30;67.60
54485;DHT22;45006;56.958;24.166;2023-03-21T16:07:45;22.30;67.60
54485;DHT22;45006;56.958;24.166;2023-03-21T16:10:31;22.30;67.70
54485;DHT22;45006;56.958;24.166;2023-03-21T16:13:03;22.30;67.80
54485;DHT22;45006;56.958;24.166;2023-03-21T16:15:30;22.20;67.80
54485;DHT22;45006;56.958;24.166;2023-03-21T16:18:00;22.20;67.90
54485;DHT22;45006;56.958;24.166;2023-03-21T16:20:32;22.20;68.00
54485;DHT22;45006;56.958;24.166;2023-03-21T16:23:00;22.30;68.10
54485;DHT22;45006;56.958;24.166;2023-03-21T16:25:29;22.20;68.20
54485;DHT22;45006;56.958;24.166;2023-03-21T16:27:56;22.30;68.30
54485;DHT22;45006;56.958;24.166;2023-03-21T16:30:23;22.20;68.20
54485;DHT22;45006;56.958;24.166;2023-03-21T16:32:51;22.20;68.30
54485;DHT22;45006;56.958;24.166;2023-03-21T16:35:18;22.20;68.20
54485;DHT22;45006;56.958;24.166;2023-03-21T16:37:49;22.20;68.20
54485;DHT22;45006;56.958;24.166;2023-03-21T16:40:27;22.20;68.30
54485;DHT22;45006;56.958;24.166;2023-03-21T16:42:55;22.20;68.20
54485;DHT22;45006;56.958;24.166;2023-03-21T16:45:22;22.20;68.10
54485;DHT22;45006;56.958;24.166;2023-03-21T16:47:49;22.20;67.50
54485;DHT22;45006;56.958;24.166;2023-03-21T16:50:31;22.20;67.60
54485;DHT22;45006;56.958;24.166;2023-03-21T16:52:59;22.20;67.60
54485;DHT22;45006;56.958;24.166;2023-03-21T16:55:26;22.20;67.50
54485;DHT22;45006;56.958;24.166;2023-03-21T16:57:54;22.20;67.40
54485;DHT22;45006;56.958;24.166;2023-03-21T17:00:25;22.20;67.40
54485;DHT22;45006;56.958;24.166;2023-03-21T17:02:55;22.20;67.50
54485;DHT22;45006;56.958;24.166;2023-03-21T17:05:24;22.20;67.40
54485;DHT22;45006;56.958;24.166;2023-03-21T17:07:55;22.20;67.50
54485;DHT22;45006;56.958;24.166;2023-03-21T17:10:25;22.20;67.50
54485;DHT22;45006;56.958;24.166;2023-03-21T17:12:52;22.20;67.50
54485;DHT22;45006;56.958;24.166;2023-03-21T17:15:20;22.20;67.50
54485;DHT22;45006;56.958;24.166;2023-03-21T17:17:53;22.20;67.60
54485;DHT22;45006;56.958;24.166;2023-03-21T17:20:24;22.20;67.60
54485;DHT22;45006;56.958;24.166;2023-03-21T17:22:54;22.20;67.60
54485;DHT22;45006;56.958;24.166;2023-03-21T17:25:22;22.20;67.60
54485;DHT22;45006;56.958;24.166;2023-03-21T17:27:49;22.20;67.60
54485;DHT22;45006;56.958;24.166;2023-03-21T17:30:25;22.20;67.60
54485;DHT22;45006;56.958;24.166;2023-03-21T17:32:53;22.20;67.60
54485;DHT22;45006;56.958;24.166;2023-03-21T17:35:21;22.20;67.60
54485;DHT22;45006;56.958;24.166;2023-03-21T17:37:50;22.20;67.60
54485;DHT22;45006;56.958;24.166;2023-03-21T17:40:23;22.20;67.60
54485;DHT22;45006;56.958;24.166;2023-03-21T17:42:51;22.20;67.60
54485;DHT22;45006;56.958;24.166;2023-03-21T17:45:19;22.20;67.60